createdAt,value
2022-09-28T00:01:27.549Z,99238.19
2022-09-28T00:03:56.761Z,99227.50
2022-09-28T00:06:25.365Z,99221.88
2022-09-28T00:08:52.235Z,99212.03
2022-09-28T00:11:20.520Z,99206.72
2022-09-28T00:13:49.986Z,99203.72
2022-09-28T00:16:17.486Z,99203.41
2022-09-28T00:18:44.470Z,99198.66
2022-09-28T00:21:14.545Z,99204.81
2022-09-28T00:23:42.001Z,99198.53
2022-09-28T00:26:08.577Z,99209.09
2022-09-28T00:28:35.113Z,99202.09
2022-09-28T00:31:01.798Z,99211.13
2022-09-28T00:33:28.540Z,99203.72
2022-09-28T00:35:56.581Z,99197.69
2022-09-28T00:38:27.949Z,99187.19
2022-09-28T00:40:54.860Z,99177.25
2022-09-28T00:43:23.149Z,99176.47
2022-09-28T00:45:55.433Z,99182.34
2022-09-28T00:48:22.905Z,99175.44
2022-09-28T00:50:50.433Z,99193.38
2022-09-28T00:53:21.417Z,99199.56
2022-09-28T00:55:51.920Z,99195.13
2022-09-28T00:58:22.765Z,99202.56
2022-09-28T01:00:49.841Z,99199.13
2022-09-28T01:03:16.873Z,99204.72
2022-09-28T01:05:44.820Z,99197.72
2022-09-28T01:08:12.927Z,99190.81
2022-09-28T01:10:40.570Z,99182.06
2022-09-28T01:13:08.664Z,99182.06
2022-09-28T01:15:42.522Z,99197.00
2022-09-28T01:18:17.775Z,99173.00
2022-09-28T01:20:54.143Z,99175.47
2022-09-28T01:23:58.921Z,99159.28
2022-09-28T01:26:41.279Z,99175.34
2022-09-28T01:29:18.999Z,99156.41
2022-09-28T01:31:52.676Z,99176.06
2022-09-28T01:34:27.750Z,99167.75
2022-09-28T01:36:58.164Z,99168.75
2022-09-28T01:39:31.178Z,99160.88
2022-09-28T01:42:04.095Z,99168.28
2022-09-28T01:44:35.894Z,99184.38
2022-09-28T01:47:03.281Z,99187.06
2022-09-28T01:49:35.824Z,99188.22
2022-09-28T01:52:09.014Z,99186.91
2022-09-28T01:54:41.004Z,99187.06
2022-09-28T01:57:15.060Z,99174.75
2022-09-28T01:59:45.557Z,99178.19
2022-09-28T02:02:17.025Z,99187.91
2022-09-28T02:04:48.603Z,99175.59
2022-09-28T02:07:22.731Z,99186.50
2022-09-28T02:09:53.333Z,99163.00
2022-09-28T02:12:25.926Z,99165.56
2022-09-28T02:14:58.798Z,99167.03
2022-09-28T02:17:25.462Z,99163.44
2022-09-28T02:19:52.014Z,99151.53
2022-09-28T02:22:26.409Z,99165.16
2022-09-28T02:24:56.191Z,99151.56
2022-09-28T02:27:31.748Z,99142.22
2022-09-28T02:29:58.387Z,99158.09
2022-09-28T02:32:28.304Z,99166.09
2022-09-28T02:34:55.494Z,99161.97
2022-09-28T02:37:22.151Z,99164.56
2022-09-28T02:39:48.802Z,99162.78
2022-09-28T02:42:21.006Z,99179.19
2022-09-28T02:45:06.034Z,99171.47
2022-09-28T02:47:48.092Z,99172.59
2022-09-28T02:50:26.601Z,99179.16
2022-09-28T02:53:12.087Z,99198.53
2022-09-28T02:55:50.430Z,99203.28
2022-09-28T02:58:31.342Z,99194.38
2022-09-28T03:01:07.442Z,99201.81
2022-09-28T03:03:46.179Z,99189.72
2022-09-28T03:06:21.834Z,99203.69
2022-09-28T03:08:53.485Z,99208.22
2022-09-28T03:11:25.007Z,99198.84
2022-09-28T03:13:52.597Z,99204.16
2022-09-28T03:16:20.629Z,99215.81
2022-09-28T03:18:47.892Z,99216.03
2022-09-28T03:21:15.849Z,99215.84
2022-09-28T03:23:42.780Z,99204.94
2022-09-28T03:26:10.968Z,99196.63
2022-09-28T03:28:37.597Z,99208.00
2022-09-28T03:31:04.305Z,99218.47
2022-09-28T03:33:32.281Z,99218.91
2022-09-28T03:35:58.863Z,99219.19
2022-09-28T03:38:25.659Z,99193.94
2022-09-28T03:40:53.749Z,99198.63
2022-09-28T03:43:20.596Z,99201.56
2022-09-28T03:45:53.418Z,99200.16
2022-09-28T03:48:24.501Z,99190.91
2022-09-28T03:50:55.664Z,99190.06
2022-09-28T03:53:22.744Z,99187.63
2022-09-28T03:55:49.612Z,99195.34
2022-09-28T03:58:16.578Z,99199.00
2022-09-28T04:00:43.200Z,99187.44
2022-09-28T04:03:09.797Z,99196.38
2022-09-28T04:05:36.372Z,99191.06
2022-09-28T04:08:04.695Z,99197.81
2022-09-28T04:10:31.305Z,99197.69
2022-09-28T04:12:58.479Z,99195.44
2022-09-28T04:15:25.485Z,99204.09
2022-09-28T04:17:52.307Z,99198.78
2022-09-28T04:20:19.179Z,99202.84
2022-09-28T04:22:45.774Z,99187.53
2022-09-28T04:25:13.807Z,99168.28
2022-09-28T04:27:40.353Z,99164.81
2022-09-28T04:30:08.250Z,99163.81
2022-09-28T04:32:34.784Z,99176.13
2022-09-28T04:35:01.373Z,99170.66
2022-09-28T04:37:27.898Z,99185.63
2022-09-28T04:39:54.465Z,99174.94
2022-09-28T04:42:22.396Z,99176.13
2022-09-28T04:44:48.954Z,99174.94
2022-09-28T04:47:15.547Z,99163.84
2022-09-28T04:49:42.135Z,99156.06
2022-09-28T04:52:08.725Z,99146.94
2022-09-28T04:54:35.757Z,99157.78
2022-09-28T04:57:02.705Z,99165.22
2022-09-28T04:59:30.641Z,99164.75
2022-09-28T05:01:57.252Z,99154.06
2022-09-28T05:04:26.107Z,99152.56
2022-09-28T05:06:53.009Z,99150.94
2022-09-28T05:09:19.573Z,99151.59
2022-09-28T05:11:46.129Z,99143.66
2022-09-28T05:14:12.882Z,99154.94
2022-09-28T05:16:40.830Z,99146.78
2022-09-28T05:19:07.504Z,99152.75
2022-09-28T05:21:34.079Z,99157.34
2022-09-28T05:24:01.272Z,99150.75
2022-09-28T05:26:27.818Z,99149.75
2022-09-28T05:28:54.455Z,99157.94
2022-09-28T05:31:21.068Z,99146.38
2022-09-28T05:33:50.835Z,99152.13
2022-09-28T05:36:17.379Z,99149.66
2022-09-28T05:38:43.988Z,99128.06
2022-09-28T05:41:17.689Z,99133.81
2022-09-28T05:43:44.323Z,99138.47
2022-09-28T05:46:11.250Z,99131.34
2022-09-28T05:48:37.936Z,99137.81
2022-09-28T05:51:06.289Z,99135.44
2022-09-28T05:53:32.884Z,99132.88
2022-09-28T05:55:59.511Z,99143.88
2022-09-28T05:58:26.061Z,99150.25
2022-09-28T06:00:54.713Z,99138.75
2022-09-28T06:03:21.529Z,99149.78
2022-09-28T06:05:48.087Z,99139.84
2022-09-28T06:08:16.108Z,99120.47
2022-09-28T06:10:42.695Z,99131.81
2022-09-28T06:13:10.683Z,99128.56
2022-09-28T06:15:37.811Z,99141.94
2022-09-28T06:18:06.619Z,99122.56
2022-09-28T06:20:35.512Z,99135.66
2022-09-28T06:23:02.077Z,99147.38
2022-09-28T06:25:30.107Z,99146.72
2022-09-28T06:27:58.585Z,99152.72
2022-09-28T06:30:26.822Z,99150.78
2022-09-28T06:32:54.713Z,99148.56
2022-09-28T06:35:21.875Z,99144.78
2022-09-28T06:37:48.541Z,99128.44
2022-09-28T06:40:15.651Z,99124.09
2022-09-28T06:42:43.733Z,99127.47
2022-09-28T06:45:10.583Z,99136.22
2022-09-28T06:47:37.582Z,99130.00
2022-09-28T06:50:04.913Z,99131.84
2022-09-28T06:52:31.720Z,99131.13
2022-09-28T06:54:58.368Z,99119.63
2022-09-28T06:57:24.911Z,99133.22
2022-09-28T06:59:52.928Z,99131.41
2022-09-28T07:02:19.574Z,99123.81
2022-09-28T07:04:46.174Z,99122.47
2022-09-28T07:07:12.779Z,99109.56
2022-09-28T07:09:43.685Z,99121.13
2022-09-28T07:12:13.146Z,99113.88
2022-09-28T07:14:47.728Z,99117.41
2022-09-28T07:17:16.515Z,99103.28
2022-09-28T07:19:43.149Z,99104.91
2022-09-28T07:22:09.741Z,99102.53
2022-09-28T07:24:36.283Z,99087.34
2022-09-28T07:27:02.955Z,99100.53
2022-09-28T07:29:29.614Z,99103.97
2022-09-28T07:31:56.153Z,99098.91
2022-09-28T07:34:24.933Z,99104.81
2022-09-28T07:36:51.478Z,99099.47
2022-09-28T07:39:18.089Z,99093.31
2022-09-28T07:41:44.761Z,99097.00
2022-09-28T07:44:11.409Z,99090.78
2022-09-28T07:46:38.158Z,99086.78
2022-09-28T07:49:08.296Z,99094.28
2022-09-28T07:51:39.513Z,99090.16
2022-09-28T07:54:06.257Z,99084.44
2022-09-28T07:56:32.797Z,99084.09
2022-09-28T07:58:59.369Z,99077.75
2022-09-28T08:01:26.121Z,99073.16
2022-09-28T08:03:52.660Z,99076.25
2022-09-28T08:06:19.214Z,99068.38
2022-09-28T08:08:47.191Z,99066.00
2022-09-28T08:11:15.959Z,99059.97
2022-09-28T08:13:42.663Z,99064.13
2022-09-28T08:16:09.251Z,99068.19
2022-09-28T08:18:36.154Z,99065.97
2022-09-28T08:21:03.506Z,99062.41
2022-09-28T08:23:30.290Z,99046.97
2022-09-28T08:25:58.216Z,99048.03
2022-09-28T08:28:25.229Z,99058.59
2022-09-28T08:30:52.420Z,99049.22
2022-09-28T08:33:20.110Z,99045.47
2022-09-28T08:35:47.226Z,99050.03
2022-09-28T08:38:14.220Z,99036.31
2022-09-28T08:40:49.962Z,99015.91
2022-09-28T08:43:39.649Z,99031.81
2022-09-28T08:46:07.148Z,99035.00
2022-09-28T08:48:37.427Z,99033.63
2022-09-28T08:51:10.443Z,99038.38
2022-09-28T08:53:42.190Z,99029.09
2022-09-28T08:56:21.645Z,99036.47
2022-09-28T08:58:55.953Z,99026.59
2022-09-28T09:01:26.435Z,99044.44
2022-09-28T09:03:55.222Z,99045.97
2022-09-28T09:06:34.292Z,99052.63
2022-09-28T09:09:08.697Z,99052.03
2022-09-28T09:11:51.259Z,99061.03
2022-09-28T09:14:44.306Z,99066.47
2022-09-28T09:17:25.991Z,99078.84
2022-09-28T09:19:54.987Z,99076.25
2022-09-28T09:22:38.390Z,99082.06
2022-09-28T09:25:18.280Z,99078.72
2022-09-28T09:28:13.350Z,99080.25
2022-09-28T09:30:52.250Z,99070.09
2022-09-28T09:33:50.352Z,99078.81
2022-09-28T09:36:31.842Z,99067.72
2022-09-28T09:39:11.692Z,99070.47
2022-09-28T09:41:53.418Z,99062.22
2022-09-28T09:44:41.129Z,99050.66
2022-09-28T09:47:13.181Z,99057.47
2022-09-28T09:49:44.310Z,99041.22
2022-09-28T09:52:17.578Z,99055.47
2022-09-28T09:54:49.940Z,99060.53
2022-09-28T09:57:20.984Z,99055.16
2022-09-28T09:59:49.175Z,99051.41
2022-09-28T10:02:23.376Z,99051.56
2022-09-28T10:04:54.719Z,99051.34
2022-09-28T10:07:24.220Z,99045.63
2022-09-28T10:09:56.762Z,99043.22
2022-09-28T10:12:24.404Z,99047.69
2022-09-28T10:14:51.104Z,99049.72
2022-09-28T10:17:19.706Z,99050.91
2022-09-28T10:19:46.547Z,99052.28
2022-09-28T10:22:17.540Z,99046.78
2022-09-28T10:24:49.338Z,99052.97
2022-09-28T10:27:19.006Z,99058.91
2022-09-28T10:29:50.670Z,99049.97
2022-09-28T10:32:21.388Z,99050.75
2022-09-28T10:34:50.845Z,99049.00
2022-09-28T10:37:18.461Z,99031.94
2022-09-28T10:39:49.297Z,99025.09
2022-09-28T10:42:20.900Z,99032.38
2022-09-28T10:44:55.423Z,99026.06
2022-09-28T10:47:26.176Z,99015.16
2022-09-28T10:49:55.325Z,98997.75
2022-09-28T10:52:36.830Z,98990.50
2022-09-28T10:55:22.365Z,98992.63
2022-09-28T10:57:49.360Z,98991.06
2022-09-28T11:00:31.900Z,98995.69
2022-09-28T11:03:00.980Z,98981.50
2022-09-28T11:05:28.127Z,98981.78
2022-09-28T11:07:56.746Z,98969.50
2022-09-28T11:10:25.770Z,98941.59
2022-09-28T11:12:53.703Z,98946.81
2022-09-28T11:15:22.335Z,98940.09
2022-09-28T11:17:49.040Z,98949.59
2022-09-28T11:20:34.884Z,98964.69
2022-09-28T11:23:17.926Z,98954.03
2022-09-28T11:25:57.328Z,98954.31
2022-09-28T11:28:30.475Z,98948.16
2022-09-28T11:30:57.708Z,98953.53
2022-09-28T11:33:30.460Z,98953.22
2022-09-28T11:36:09.904Z,98935.66
2022-09-28T11:38:40.306Z,98961.34
2022-09-28T11:41:36.033Z,98949.09
2022-09-28T11:44:27.032Z,98951.56
2022-09-28T11:47:09.983Z,98943.50
2022-09-28T11:49:44.030Z,98953.94
2022-09-28T11:52:18.927Z,98958.47
2022-09-28T11:54:52.071Z,98948.06
2022-09-28T11:57:25.210Z,98953.75
2022-09-28T11:59:58.078Z,98937.16
2022-09-28T12:02:29.816Z,98933.66
2022-09-28T12:05:02.082Z,98921.84
2022-09-28T12:07:35.620Z,98939.22
2022-09-28T12:10:12.076Z,98936.66
2022-09-28T12:12:43.725Z,98930.19
2022-09-28T12:15:17.973Z,98922.16
2022-09-28T12:17:49.670Z,98919.75
2022-09-28T12:20:21.214Z,98919.13
2022-09-28T12:23:02.559Z,98914.44
2022-09-28T12:25:37.065Z,98902.09
2022-09-28T12:28:11.413Z,98895.44
2022-09-28T12:30:43.397Z,98902.06
2022-09-28T12:33:12.782Z,98910.53
2022-09-28T12:35:55.938Z,98881.13
2022-09-28T12:38:36.522Z,98891.00
2022-09-28T12:41:15.789Z,98863.50
2022-09-28T12:44:11.321Z,98890.41
2022-09-28T12:47:05.753Z,98871.88
2022-09-28T12:52:52.003Z,98841.97
2022-09-28T12:55:40.523Z,98853.81
2022-09-28T12:58:24.717Z,98868.81
2022-09-28T13:01:04.150Z,98883.72
2022-09-28T13:04:04.530Z,98874.63
2022-09-28T13:06:42.890Z,98876.50
2022-09-28T13:09:28.263Z,98879.13
2022-09-28T13:12:05.466Z,98875.78
2022-09-28T13:15:02.842Z,98869.31
2022-09-28T13:17:40.444Z,98874.81
2022-09-28T13:20:22.088Z,98875.63
2022-09-28T13:22:56.467Z,98880.13
2022-09-28T13:25:27.387Z,98880.97
2022-09-28T13:27:58.325Z,98871.97
2022-09-28T13:30:25.314Z,98880.47
2022-09-28T13:32:55.620Z,98871.06
2022-09-28T13:35:22.644Z,98875.03
2022-09-28T13:38:28.088Z,98872.22
2022-09-28T13:41:18.063Z,98870.06
2022-09-28T13:44:14.531Z,98872.63
2022-09-28T13:46:48.944Z,98873.91
2022-09-28T13:49:22.510Z,98850.72
2022-09-28T13:52:02.485Z,98874.38
2022-09-28T13:54:46.210Z,98872.88
2022-09-28T13:57:19.450Z,98877.13
2022-09-28T13:59:58.480Z,98875.28
2022-09-28T14:02:34.685Z,98862.44
2022-09-28T14:05:03.824Z,98868.63
2022-09-28T14:08:09.867Z,98861.91
2022-09-28T14:10:47.141Z,98850.06
2022-09-28T14:14:03.870Z,98864.25
2022-09-28T14:16:33.519Z,98862.84
2022-09-28T14:19:07.895Z,98859.88
2022-09-28T14:21:55.833Z,98859.59
2022-09-28T14:24:36.402Z,98851.72
2022-09-28T14:27:31.426Z,98858.28
2022-09-28T14:30:15.871Z,98873.06
2022-09-28T14:32:52.726Z,98868.06
2022-09-28T14:35:27.361Z,98868.69
2022-09-28T14:37:59.294Z,98854.78
2022-09-28T14:40:31.883Z,98859.72
2022-09-28T14:43:22.367Z,98862.41
2022-09-28T14:45:49.450Z,98844.50
2022-09-28T14:48:21.539Z,98855.50
2022-09-28T14:50:49.077Z,98852.44
2022-09-28T14:53:20.482Z,98878.03
2022-09-28T14:55:50.088Z,98881.81
2022-09-28T14:58:22.564Z,98884.06
2022-09-28T15:01:01.370Z,98867.81
2022-09-28T15:03:33.143Z,98867.59
2022-09-28T15:05:59.752Z,98869.00
2022-09-28T15:08:36.834Z,98863.09
2022-09-28T15:11:03.662Z,98866.59
2022-09-28T15:13:30.484Z,98870.75
2022-09-28T15:16:03.606Z,98874.63
2022-09-28T15:19:12.004Z,98859.00
2022-09-28T15:21:41.105Z,98865.78
2022-09-28T15:24:29.943Z,98869.00
2022-09-28T15:26:56.994Z,98863.03
2022-09-28T15:29:24.626Z,98864.78
2022-09-28T15:31:54.509Z,98868.41
2022-09-28T15:34:31.349Z,98864.63
2022-09-28T15:36:58.194Z,98864.63
2022-09-28T15:39:31.327Z,98861.19
2022-09-28T15:42:00.292Z,98869.44
2022-09-28T15:44:32.314Z,98869.41
2022-09-28T15:47:12.008Z,98857.63
2022-09-28T15:49:45.732Z,98862.94
2022-09-28T15:52:26.562Z,98854.88
2022-09-28T15:54:54.362Z,98854.69
2022-09-28T15:57:34.018Z,98850.78
2022-09-28T16:00:01.230Z,98867.38
2022-09-28T16:02:28.052Z,98872.84
2022-09-28T16:04:58.451Z,98869.78
2022-09-28T16:07:36.003Z,98861.91
2022-09-28T16:10:25.884Z,98864.47
2022-09-28T16:12:55.825Z,98868.91
2022-09-28T16:15:27.067Z,98859.50
2022-09-28T16:17:56.369Z,98853.19
2022-09-28T16:20:28.631Z,98864.66
2022-09-28T16:22:57.369Z,98864.28
2022-09-28T16:25:26.742Z,98820.19
2022-09-28T16:27:54.504Z,98867.53
2022-09-28T16:30:22.994Z,98844.81
2022-09-28T16:32:53.005Z,98858.47
2022-09-28T16:35:27.466Z,98864.28
2022-09-28T16:38:10.405Z,98866.25
2022-09-28T16:40:41.223Z,98845.50
2022-09-28T16:43:13.355Z,98870.44
2022-09-28T16:45:40.088Z,98862.91
2022-09-28T16:48:06.951Z,98879.94
2022-09-28T16:50:35.307Z,98865.19
2022-09-28T16:53:13.007Z,98887.13
2022-09-28T16:55:41.150Z,98877.94
2022-09-28T16:58:08.494Z,98886.88
2022-09-28T17:00:35.272Z,98882.97
2022-09-28T17:03:02.161Z,98873.09
2022-09-28T17:05:28.966Z,98884.94
2022-09-28T17:08:00.303Z,98884.63
2022-09-28T17:10:49.738Z,98871.03
2022-09-28T17:13:21.615Z,98881.63
2022-09-28T17:15:48.531Z,98868.38
2022-09-28T17:18:16.162Z,98869.94
2022-09-28T17:20:45.177Z,98840.72
2022-09-28T17:23:13.390Z,98857.63
2022-09-28T17:25:40.984Z,98871.66
2022-09-28T17:28:18.854Z,98864.28
2022-09-28T17:30:48.721Z,98861.38
2022-09-28T17:33:15.603Z,98866.50
2022-09-28T17:35:44.501Z,98812.25
2022-09-28T17:38:14.123Z,98853.38
2022-09-28T17:40:42.147Z,98826.97
2022-09-28T17:43:09.766Z,98813.72
2022-09-28T17:45:38.382Z,98848.41
2022-09-28T17:48:05.418Z,98846.16
2022-09-28T17:50:34.352Z,98856.41
2022-09-28T17:53:01.731Z,98868.53
2022-09-28T17:55:30.862Z,98867.59
2022-09-28T17:58:02.278Z,98888.75
2022-09-28T18:00:29.391Z,98873.50
2022-09-28T18:02:57.537Z,98864.03
2022-09-28T18:05:25.919Z,98871.41
2022-09-28T18:07:53.059Z,98869.22
2022-09-28T18:10:23.695Z,98856.63
2022-09-28T18:12:51.893Z,98873.03
2022-09-28T18:15:19.487Z,98878.84
2022-09-28T18:17:46.309Z,98871.38
2022-09-28T18:20:13.717Z,98883.13
2022-09-28T18:22:40.786Z,98877.97
2022-09-28T18:25:08.300Z,98882.13
2022-09-28T18:27:35.057Z,98862.47
2022-09-28T18:30:04.247Z,98831.97
2022-09-28T18:32:31.008Z,98831.97
2022-09-28T18:34:57.709Z,98870.09
2022-09-28T18:37:24.406Z,98870.19
2022-09-28T18:39:51.070Z,98869.38
2022-09-28T18:42:17.990Z,98866.63
2022-09-28T18:44:44.605Z,98863.09
2022-09-28T18:47:13.185Z,98853.53
2022-09-28T18:49:42.544Z,98871.28
2022-09-28T18:52:12.711Z,98870.03
2022-09-28T18:54:39.385Z,98869.50
2022-09-28T18:57:06.067Z,98871.56
2022-09-28T18:59:32.813Z,98860.63
2022-09-28T19:01:59.571Z,98859.38
2022-09-28T19:04:27.703Z,98866.50
2022-09-28T19:06:54.795Z,98870.34
2022-09-28T19:09:23.020Z,98860.06
2022-09-28T19:11:49.764Z,98870.00
2022-09-28T19:14:16.781Z,98856.25
2022-09-28T19:16:44.351Z,98850.97
2022-09-28T19:19:12.372Z,98863.34
2022-09-28T19:21:41.107Z,98862.56
2022-09-28T19:24:07.918Z,98856.19
2022-09-28T19:26:34.556Z,98873.84
2022-09-28T19:29:01.367Z,98869.84
2022-09-28T19:31:29.271Z,98868.69
2022-09-28T19:33:57.174Z,98873.44
2022-09-28T19:36:25.981Z,98868.03
2022-09-28T19:38:55.398Z,98868.91
2022-09-28T19:41:22.677Z,98864.03
2022-09-28T19:43:49.314Z,98856.16
2022-09-28T19:46:16.042Z,98860.28
2022-09-28T19:48:42.794Z,98866.47
2022-09-28T19:51:09.524Z,98862.38
2022-09-28T19:53:36.611Z,98877.84
2022-09-28T19:56:05.396Z,98871.88
2022-09-28T19:58:34.165Z,98871.38
2022-09-28T20:01:04.450Z,98853.94
2022-09-28T20:03:31.107Z,98861.47
2022-09-28T20:05:58.819Z,98868.41
2022-09-28T20:08:25.470Z,98853.59
2022-09-28T20:10:53.315Z,98861.22
2022-09-28T20:13:22.206Z,98865.81
2022-09-28T20:15:48.917Z,98868.84
2022-09-28T20:18:15.994Z,98856.25
2022-09-28T20:20:42.679Z,98860.59
2022-09-28T20:23:09.667Z,98856.78
2022-09-28T20:25:36.745Z,98841.66
2022-09-28T20:28:03.390Z,98870.47
2022-09-28T20:30:31.568Z,98869.03
2022-09-28T20:32:58.328Z,98847.41
2022-09-28T20:35:32.691Z,98871.56
2022-09-28T20:38:02.038Z,98858.25
2022-09-28T20:40:28.817Z,98863.31
2022-09-28T20:42:55.467Z,98875.34
2022-09-28T20:45:22.119Z,98877.44
2022-09-28T20:47:50.301Z,98873.34
2022-09-28T20:50:17.034Z,98880.44
2022-09-28T20:52:43.768Z,98875.75
2022-09-28T20:55:10.405Z,98855.56
2022-09-28T20:57:37.504Z,98881.13
2022-09-28T21:00:05.250Z,98880.88
2022-09-28T21:02:32.176Z,98873.97
2022-09-28T21:05:00.430Z,98874.66
2022-09-28T21:07:27.123Z,98874.41
2022-09-28T21:09:54.031Z,98874.78
2022-09-28T21:12:20.716Z,98834.59
2022-09-28T21:14:47.411Z,98829.69
2022-09-28T21:17:14.351Z,98825.09
2022-09-28T21:19:41.004Z,98828.13
2022-09-28T21:22:09.403Z,98816.72
2022-09-28T21:24:36.026Z,98808.06
2022-09-28T21:27:02.783Z,98802.03
2022-09-28T21:29:29.701Z,98811.94
2022-09-28T21:31:56.496Z,98826.72
2022-09-28T21:34:23.132Z,98856.19
2022-09-28T21:36:51.350Z,98841.66
2022-09-28T21:39:19.975Z,98868.47
2022-09-28T21:41:46.573Z,98866.09
2022-09-28T21:44:13.316Z,98853.44
2022-09-28T21:46:40.112Z,98842.44
2022-09-28T21:49:08.487Z,98871.38
2022-09-28T21:51:35.551Z,98871.66
2022-09-28T21:54:07.973Z,98867.81
2022-09-28T21:56:36.011Z,98870.75
2022-09-28T21:59:02.674Z,98888.34
2022-09-28T22:01:29.361Z,98886.69
2022-09-28T22:03:57.017Z,98894.06
2022-09-28T22:06:25.276Z,98895.94
2022-09-28T22:08:51.903Z,98883.19
2022-09-28T22:11:20.666Z,98881.66
2022-09-28T22:13:50.810Z,98883.47
2022-09-28T22:16:19.484Z,98867.84
2022-09-28T22:18:46.652Z,98856.78
2022-09-28T22:21:15.241Z,98858.38
2022-09-28T22:23:42.297Z,98849.44
2022-09-28T22:26:10.965Z,98862.84
2022-09-28T22:28:38.408Z,98875.50
2022-09-28T22:31:06.688Z,98887.25
2022-09-28T22:33:33.398Z,98876.38
2022-09-28T22:36:00.111Z,98876.28
2022-09-28T22:38:26.744Z,98869.31
2022-09-28T22:40:55.872Z,98852.63
2022-09-28T22:43:24.385Z,98860.59
2022-09-28T22:45:51.328Z,98859.72
2022-09-28T22:48:19.376Z,98864.38
2022-09-28T22:50:49.355Z,98856.78
2022-09-28T22:53:15.998Z,98862.31
2022-09-28T22:55:42.817Z,98865.84
2022-09-28T22:58:09.500Z,98851.84
2022-09-28T23:00:36.213Z,98856.63
2022-09-28T23:03:03.068Z,98856.50
2022-09-28T23:05:32.346Z,98849.34
2022-09-28T23:07:59.077Z,98846.47
2022-09-28T23:10:25.890Z,98840.88
2022-09-28T23:12:53.410Z,98829.94
2022-09-28T23:15:20.076Z,98855.75
2022-09-28T23:17:50.781Z,98846.00
2022-09-28T23:20:17.597Z,98863.94
2022-09-28T23:22:47.336Z,98887.91
2022-09-28T23:25:14.575Z,98893.78
2022-09-28T23:27:44.888Z,98903.41
2022-09-28T23:30:12.049Z,98915.75
2022-09-28T23:32:38.732Z,98926.53
2022-09-28T23:35:06.436Z,98933.63
2022-09-28T23:37:33.079Z,98932.88
2022-09-28T23:40:01.480Z,98924.13
2022-09-28T23:42:28.204Z,98937.19
2022-09-28T23:44:54.839Z,98924.44
2022-09-28T23:47:21.490Z,98910.50
2022-09-28T23:49:48.119Z,98904.56
2022-09-28T23:52:14.761Z,98925.44
2022-09-28T23:54:41.461Z,98932.97
2022-09-28T23:57:09.482Z,98937.16
2022-09-28T23:59:36.106Z,98937.84
